createdAt,value
2023-08-29T00:00:25.730Z,11.98
2023-08-29T00:02:54.285Z,5.65
2023-08-29T00:05:22.127Z,10.32
2023-08-29T00:07:49.865Z,5.90
2023-08-29T00:10:17.567Z,6.88
2023-08-29T00:12:45.373Z,6.40
2023-08-29T00:15:13.116Z,4.20
2023-08-29T00:17:40.958Z,5.95
2023-08-29T00:20:09.130Z,6.18
2023-08-29T00:22:36.983Z,5.35
2023-08-29T00:25:04.911Z,5.28
2023-08-29T00:27:32.654Z,9.43
2023-08-29T00:30:00.379Z,10.25
2023-08-29T00:32:29.514Z,7.07
2023-08-29T00:34:57.252Z,5.30
2023-08-29T00:37:24.982Z,7.63
2023-08-29T00:39:52.710Z,6.20
2023-08-29T00:42:20.431Z,6.20
2023-08-29T00:44:48.168Z,6.75
2023-08-29T00:47:16.001Z,5.65
2023-08-29T00:49:44.619Z,4.25
2023-08-29T00:52:12.354Z,5.47
2023-08-29T00:54:40.099Z,7.03
2023-08-29T00:57:08.036Z,4.90
2023-08-29T00:59:36.414Z,6.15
2023-08-29T01:02:05.184Z,6.82
2023-08-29T01:04:33.021Z,7.70
2023-08-29T01:07:00.888Z,6.07
2023-08-29T01:09:28.646Z,6.78
2023-08-29T01:11:59.917Z,7.05
2023-08-29T01:15:02.878Z,8.00
2023-08-29T01:17:35.718Z,7.30
2023-08-29T01:20:06.671Z,7.35
2023-08-29T01:23:04.129Z,6.43
2023-08-29T01:26:04.742Z,6.47
2023-08-29T01:28:33.127Z,5.85
2023-08-29T01:31:04.927Z,5.78
2023-08-29T01:33:33.015Z,6.72
2023-08-29T01:36:01.314Z,7.70
2023-08-29T01:38:29.081Z,5.43
2023-08-29T01:40:57.166Z,8.48
2023-08-29T01:43:25.544Z,7.13
2023-08-29T01:45:53.653Z,5.70
2023-08-29T01:48:23.897Z,6.60
2023-08-29T01:50:51.892Z,9.50
2023-08-29T01:53:20.031Z,7.15
2023-08-29T01:55:49.467Z,6.88
2023-08-29T01:58:18.035Z,6.97
2023-08-29T02:00:45.943Z,6.65
2023-08-29T02:03:13.671Z,5.78
2023-08-29T02:05:42.823Z,10.07
2023-08-29T02:08:10.579Z,7.30
2023-08-29T02:10:38.310Z,9.40
2023-08-29T02:13:06.004Z,9.82
2023-08-29T02:15:33.728Z,6.70
2023-08-29T02:18:01.544Z,7.28
2023-08-29T02:20:30.450Z,5.70
2023-08-29T02:22:58.556Z,7.50
2023-08-29T02:25:26.283Z,6.78
2023-08-29T02:27:55.935Z,5.35
2023-08-29T02:30:27.689Z,9.60
2023-08-29T02:32:56.569Z,7.63
2023-08-29T02:35:24.299Z,5.75
2023-08-29T02:37:52.237Z,6.38
2023-08-29T02:40:20.819Z,7.53
2023-08-29T02:42:48.923Z,6.82
2023-08-29T02:45:16.693Z,5.45
2023-08-29T02:47:44.429Z,7.15
2023-08-29T02:50:12.201Z,7.28
2023-08-29T02:52:39.959Z,7.47
2023-08-29T02:55:08.185Z,7.32
2023-08-29T02:57:38.586Z,6.60
2023-08-29T03:00:08.209Z,8.57
2023-08-29T03:02:36.025Z,6.00
2023-08-29T03:05:04.145Z,6.25
2023-08-29T03:07:32.155Z,5.97
2023-08-29T03:09:59.978Z,6.18
2023-08-29T03:12:27.870Z,5.60
2023-08-29T03:14:57.449Z,6.15
2023-08-29T03:17:27.098Z,9.25
2023-08-29T03:19:55.039Z,7.22
2023-08-29T03:22:22.804Z,4.53
2023-08-29T03:24:50.944Z,4.95
2023-08-29T03:27:18.675Z,4.70
2023-08-29T03:29:46.424Z,5.72
2023-08-29T03:32:14.318Z,7.63
2023-08-29T03:34:42.114Z,6.20
2023-08-29T03:37:09.826Z,7.43
2023-08-29T03:39:37.560Z,9.70
2023-08-29T03:42:05.549Z,7.45
2023-08-29T03:44:33.283Z,7.43
2023-08-29T03:47:00.970Z,10.15
2023-08-29T03:49:28.761Z,9.02
2023-08-29T03:51:57.166Z,5.82
2023-08-29T03:54:25.441Z,6.20
2023-08-29T03:56:54.138Z,6.40
2023-08-29T03:59:21.925Z,5.68
2023-08-29T04:01:49.738Z,6.18
2023-08-29T04:04:17.645Z,6.32
2023-08-29T04:06:46.050Z,8.07
2023-08-29T04:09:15.630Z,6.90
2023-08-29T04:11:43.396Z,7.97
2023-08-29T04:14:11.100Z,8.57
2023-08-29T04:16:38.855Z,7.38
2023-08-29T04:19:06.632Z,7.03
2023-08-29T04:21:34.368Z,6.72
2023-08-29T04:24:02.145Z,8.18
2023-08-29T04:26:30.106Z,8.27
2023-08-29T04:28:57.854Z,7.88
2023-08-29T04:31:26.558Z,8.57
2023-08-29T04:33:54.295Z,8.75
2023-08-29T04:36:22.018Z,6.47
2023-08-29T04:38:49.797Z,7.53
2023-08-29T04:41:18.066Z,5.60
2023-08-29T04:43:45.774Z,7.35
2023-08-29T04:46:13.552Z,5.53
2023-08-29T04:48:41.396Z,6.30
2023-08-29T04:51:09.164Z,8.18
2023-08-29T04:53:36.920Z,7.30
2023-08-29T04:56:05.659Z,9.65
2023-08-29T04:58:37.409Z,12.73
2023-08-29T05:01:05.738Z,8.75
2023-08-29T05:03:34.116Z,9.20
2023-08-29T05:06:01.885Z,8.52
2023-08-29T05:08:35.759Z,7.90
2023-08-29T05:11:03.927Z,6.05
2023-08-29T05:13:31.712Z,7.68
2023-08-29T05:15:59.524Z,7.60
2023-08-29T05:18:28.738Z,8.25
2023-08-29T05:20:58.634Z,8.02
2023-08-29T05:23:26.417Z,8.88
2023-08-29T05:25:54.186Z,6.97
2023-08-29T05:28:21.851Z,9.38
2023-08-29T05:30:49.622Z,9.55
2023-08-29T05:33:17.340Z,10.13
2023-08-29T05:35:45.112Z,8.90
2023-08-29T05:38:12.825Z,6.45
2023-08-29T05:40:40.562Z,8.15
2023-08-29T05:43:08.294Z,8.90
2023-08-29T05:45:36.000Z,7.70
2023-08-29T05:48:05.004Z,7.22
2023-08-29T05:50:33.105Z,7.65
2023-08-29T05:53:03.076Z,8.60
2023-08-29T05:55:30.763Z,10.45
2023-08-29T05:57:58.556Z,6.57
2023-08-29T06:00:26.751Z,7.18
2023-08-29T06:02:54.686Z,7.00
2023-08-29T06:05:22.434Z,5.60
2023-08-29T06:07:51.117Z,8.80
2023-08-29T06:10:19.887Z,7.63
2023-08-29T06:12:48.125Z,6.28
2023-08-29T06:15:15.971Z,8.80
2023-08-29T06:17:43.715Z,7.30
2023-08-29T06:20:14.541Z,6.55
2023-08-29T06:22:42.521Z,7.80
2023-08-29T06:25:11.192Z,8.27
2023-08-29T06:27:39.193Z,8.48
2023-08-29T06:30:14.088Z,7.00
2023-08-29T06:32:42.828Z,7.72
2023-08-29T06:35:11.087Z,8.20
2023-08-29T06:37:39.335Z,9.80
2023-08-29T06:40:08.285Z,8.95
2023-08-29T06:42:36.070Z,7.72
2023-08-29T06:45:04.509Z,10.07
2023-08-29T06:47:32.694Z,7.07
2023-08-29T06:50:00.927Z,6.63
2023-08-29T06:52:28.998Z,8.93
2023-08-29T06:54:56.797Z,7.00
2023-08-29T06:57:24.779Z,8.73
2023-08-29T06:59:52.486Z,10.13
2023-08-29T07:02:21.049Z,11.23
2023-08-29T07:04:48.869Z,9.10
2023-08-29T07:07:16.578Z,8.13
2023-08-29T07:09:44.997Z,10.10
2023-08-29T07:12:12.825Z,8.25
2023-08-29T07:14:40.554Z,8.43
2023-08-29T07:17:10.375Z,10.55
2023-08-29T07:19:39.853Z,6.72
2023-08-29T07:22:21.750Z,8.70
2023-08-29T07:24:51.938Z,9.18
2023-08-29T07:27:20.164Z,9.80
2023-08-29T07:29:47.944Z,10.48
2023-08-29T07:32:15.831Z,7.40
2023-08-29T07:34:43.696Z,9.43
2023-08-29T07:37:11.455Z,9.20
2023-08-29T07:39:39.163Z,11.00
2023-08-29T07:42:07.195Z,6.75
2023-08-29T07:44:35.066Z,8.57
2023-08-29T07:47:15.035Z,7.25
2023-08-29T07:49:43.990Z,8.95
2023-08-29T07:52:11.731Z,10.90
2023-08-29T07:54:40.713Z,9.30
2023-08-29T07:57:08.518Z,8.55
2023-08-29T07:59:36.195Z,8.55
2023-08-29T08:02:04.015Z,6.40
2023-08-29T08:04:31.775Z,7.80
2023-08-29T08:06:59.506Z,9.45
2023-08-29T08:09:27.826Z,6.25
2023-08-29T08:11:55.636Z,8.10
2023-08-29T08:14:23.504Z,7.60
2023-08-29T08:16:51.399Z,8.60
2023-08-29T08:19:19.293Z,8.20
2023-08-29T08:21:48.876Z,7.43
2023-08-29T08:24:18.709Z,7.25
2023-08-29T08:26:47.235Z,7.60
2023-08-29T08:29:15.046Z,6.78
2023-08-29T08:31:42.912Z,7.57
2023-08-29T08:34:11.566Z,6.80
2023-08-29T08:36:39.385Z,6.70
2023-08-29T08:39:07.541Z,8.93
2023-08-29T08:41:35.319Z,10.38
2023-08-29T08:44:09.789Z,7.25
2023-08-29T08:46:38.431Z,9.63
2023-08-29T08:49:07.939Z,12.70
2023-08-29T08:51:40.839Z,5.45
2023-08-29T08:54:09.182Z,7.10
2023-08-29T08:56:38.510Z,10.40
2023-08-29T08:59:06.970Z,6.43
2023-08-29T09:01:35.520Z,7.80
2023-08-29T09:04:04.288Z,10.80
2023-08-29T09:06:32.372Z,10.25
2023-08-29T09:09:21.058Z,7.95
2023-08-29T09:11:56.653Z,10.85
2023-08-29T09:14:26.350Z,9.52
2023-08-29T09:16:55.490Z,6.95
2023-08-29T09:19:24.111Z,8.20
2023-08-29T09:21:52.424Z,7.13
2023-08-29T09:24:36.378Z,6.55
2023-08-29T09:27:10.365Z,7.13
2023-08-29T09:29:38.368Z,8.05
2023-08-29T09:32:16.263Z,9.15
2023-08-29T09:34:44.239Z,7.53
2023-08-29T09:37:14.832Z,4.70
2023-08-29T09:39:42.714Z,7.18
2023-08-29T09:42:11.883Z,8.38
2023-08-29T09:44:41.349Z,8.52
2023-08-29T09:47:12.335Z,6.72
2023-08-29T09:49:48.611Z,8.50
2023-08-29T09:54:51.070Z,6.25
2023-08-29T09:57:20.769Z,8.75
2023-08-29T09:59:48.727Z,8.10
2023-08-29T10:02:19.673Z,5.32
2023-08-29T10:04:53.760Z,8.18
2023-08-29T10:07:27.250Z,7.78
2023-08-29T10:09:55.047Z,6.63
2023-08-29T10:12:23.194Z,4.88
2023-08-29T10:14:51.692Z,6.80
2023-08-29T10:17:30.299Z,9.57
2023-08-29T10:20:00.909Z,6.18
2023-08-29T10:22:31.266Z,8.75
2023-08-29T10:25:02.024Z,7.57
2023-08-29T10:27:30.000Z,6.20
2023-08-29T10:29:57.937Z,8.73
2023-08-29T10:32:28.008Z,7.00
2023-08-29T10:34:56.564Z,7.10
2023-08-29T10:37:25.329Z,7.13
2023-08-29T10:39:53.084Z,5.75
2023-08-29T10:42:20.791Z,8.60
2023-08-29T10:44:50.295Z,6.10
2023-08-29T10:47:29.056Z,5.93
2023-08-29T10:50:03.360Z,6.40
2023-08-29T10:52:41.553Z,5.22
2023-08-29T10:55:28.733Z,5.28
2023-08-29T10:57:59.881Z,6.63
2023-08-29T11:00:35.496Z,6.13
2023-08-29T11:03:04.325Z,4.25
2023-08-29T11:05:33.181Z,6.35
2023-08-29T11:08:22.762Z,4.15
2023-08-29T11:11:16.179Z,3.90
2023-08-29T11:13:59.556Z,2.15
2023-08-29T11:16:28.754Z,4.07
2023-08-29T11:19:00.842Z,6.18
2023-08-29T11:21:30.373Z,6.63
2023-08-29T11:24:15.034Z,5.53
2023-08-29T11:26:47.034Z,3.70
2023-08-29T11:29:15.004Z,4.78
2023-08-29T11:31:44.145Z,5.40
2023-08-29T11:34:19.057Z,4.13
2023-08-29T11:36:49.424Z,5.05
2023-08-29T11:39:20.682Z,6.57
2023-08-29T11:42:09.972Z,4.63
2023-08-29T11:44:54.576Z,3.17
2023-08-29T11:47:25.800Z,6.80
2023-08-29T11:49:53.809Z,5.13
2023-08-29T11:52:21.690Z,7.47
2023-08-29T11:54:54.981Z,6.78
2023-08-29T11:57:22.896Z,4.32
2023-08-29T11:59:54.084Z,4.70
2023-08-29T12:02:25.127Z,3.88
2023-08-29T12:04:57.312Z,4.93
2023-08-29T12:07:30.929Z,6.72
2023-08-29T12:10:11.660Z,5.45
2023-08-29T12:12:40.673Z,4.75
2023-08-29T12:15:17.853Z,8.00
2023-08-29T12:17:49.828Z,4.65
2023-08-29T12:20:18.029Z,4.63
2023-08-29T12:22:50.621Z,5.13
2023-08-29T12:25:20.380Z,2.97
2023-08-29T12:27:49.302Z,5.55
2023-08-29T12:30:17.291Z,6.60
2023-08-29T12:32:46.308Z,3.90
2023-08-29T12:35:16.661Z,4.93
2023-08-29T12:37:44.510Z,4.10
2023-08-29T12:40:13.807Z,4.45
2023-08-29T12:42:45.102Z,5.25
2023-08-29T12:45:13.044Z,6.25
2023-08-29T12:47:40.908Z,4.40
2023-08-29T12:50:09.287Z,3.15
2023-08-29T12:52:37.085Z,4.47
2023-08-29T12:55:05.666Z,3.83
2023-08-29T12:57:33.433Z,4.50
2023-08-29T13:00:01.171Z,1.85
2023-08-29T13:02:29.046Z,5.65
2023-08-29T13:04:56.883Z,7.40
2023-08-29T13:07:24.565Z,2.53
2023-08-29T13:09:53.925Z,2.47
2023-08-29T13:12:21.844Z,4.97
2023-08-29T13:14:49.559Z,5.10
2023-08-29T13:17:17.698Z,4.28
2023-08-29T13:19:45.403Z,2.30
2023-08-29T13:22:13.140Z,4.82
2023-08-29T13:24:40.938Z,3.33
2023-08-29T13:27:09.986Z,4.95
2023-08-29T13:29:38.019Z,3.22
2023-08-29T13:32:06.088Z,3.50
2023-08-29T13:34:33.858Z,5.25
2023-08-29T13:37:01.568Z,4.13
2023-08-29T13:39:29.952Z,4.65
2023-08-29T13:41:57.698Z,4.72
2023-08-29T13:44:25.395Z,3.63
2023-08-29T13:46:53.148Z,7.03
2023-08-29T13:49:20.829Z,5.22
2023-08-29T13:51:49.869Z,5.30
2023-08-29T13:54:17.644Z,6.45
2023-08-29T13:56:45.579Z,3.92
2023-08-29T13:59:13.367Z,3.60
2023-08-29T14:01:41.183Z,4.20
2023-08-29T14:04:09.100Z,6.13
2023-08-29T14:06:36.839Z,3.75
2023-08-29T14:09:04.626Z,3.65
2023-08-29T14:11:32.372Z,3.33
2023-08-29T14:14:00.196Z,5.32
2023-08-29T14:16:30.049Z,2.75
2023-08-29T14:18:57.822Z,5.70
2023-08-29T14:21:25.597Z,5.47
2023-08-29T14:23:53.326Z,4.00
2023-08-29T14:26:21.070Z,3.72
2023-08-29T14:28:48.853Z,3.40
2023-08-29T14:31:21.549Z,3.75
2023-08-29T14:33:49.290Z,4.38
2023-08-29T14:36:17.128Z,2.80
2023-08-29T14:38:44.896Z,4.20
2023-08-29T14:41:14.249Z,3.85
2023-08-29T14:43:42.486Z,3.80
2023-08-29T14:46:10.432Z,5.28
2023-08-29T14:48:39.071Z,3.47
2023-08-29T14:51:07.585Z,6.65
2023-08-29T14:53:36.407Z,5.38
2023-08-29T14:56:04.431Z,5.22
2023-08-29T14:58:33.800Z,7.22
2023-08-29T15:01:01.620Z,7.57
2023-08-29T15:03:30.077Z,7.82
2023-08-29T15:05:58.869Z,6.60
2023-08-29T15:08:27.305Z,8.27
2023-08-29T15:10:55.446Z,11.88
2023-08-29T15:13:25.933Z,9.02
2023-08-29T15:15:53.782Z,8.35
2023-08-29T15:18:21.559Z,10.32
2023-08-29T15:20:50.508Z,9.48
2023-08-29T15:23:18.227Z,10.73
2023-08-29T15:25:45.982Z,7.00
2023-08-29T15:28:13.837Z,11.13
2023-08-29T15:30:41.544Z,11.73
2023-08-29T15:33:09.313Z,8.70
2023-08-29T15:35:37.119Z,10.27
2023-08-29T15:38:05.185Z,7.97
2023-08-29T15:40:33.107Z,10.75
2023-08-29T15:43:00.842Z,9.57
2023-08-29T15:45:28.548Z,8.40
2023-08-29T15:47:57.029Z,8.32
2023-08-29T15:50:24.778Z,9.30
2023-08-29T15:52:52.539Z,10.43
2023-08-29T15:55:20.402Z,9.80
2023-08-29T15:57:48.171Z,12.98
2023-08-29T16:00:17.142Z,8.80
2023-08-29T16:02:46.032Z,8.45
2023-08-29T16:05:14.231Z,9.82
2023-08-29T16:07:44.200Z,7.28
2023-08-29T16:10:15.258Z,8.82
2023-08-29T16:12:43.956Z,6.18
2023-08-29T16:15:14.359Z,9.35
2023-08-29T16:17:43.381Z,9.60
2023-08-29T16:20:11.797Z,9.85
2023-08-29T16:22:40.262Z,11.05
2023-08-29T16:25:08.482Z,8.55
2023-08-29T16:27:36.897Z,8.55
2023-08-29T16:30:08.239Z,10.05
2023-08-29T16:32:36.494Z,9.20
2023-08-29T16:35:07.400Z,9.27
2023-08-29T16:37:38.282Z,9.90
2023-08-29T16:40:09.771Z,10.57
2023-08-29T16:42:37.854Z,12.07
2023-08-29T16:45:07.242Z,11.02
2023-08-29T16:47:35.050Z,12.38
2023-08-29T16:50:03.097Z,9.68
2023-08-29T16:52:31.042Z,8.38
2023-08-29T16:54:58.858Z,7.78
2023-08-29T16:57:26.583Z,8.13
2023-08-29T16:59:58.583Z,9.23
2023-08-29T17:02:27.271Z,8.00
2023-08-29T17:04:55.817Z,8.35
2023-08-29T17:07:24.885Z,8.50
2023-08-29T17:09:53.340Z,9.20
2023-08-29T17:12:22.601Z,8.07
2023-08-29T17:14:51.233Z,10.10
2023-08-29T17:17:19.784Z,9.45
2023-08-29T17:19:47.547Z,10.88
2023-08-29T17:22:15.435Z,8.93
2023-08-29T17:24:43.238Z,7.43
2023-08-29T17:27:11.088Z,12.00
2023-08-29T17:29:39.066Z,11.90
2023-08-29T17:32:07.607Z,9.95
2023-08-29T17:34:54.026Z,9.70
2023-08-29T17:37:42.219Z,10.18
2023-08-29T17:40:30.236Z,9.35
2023-08-29T17:43:18.272Z,11.20
2023-08-29T17:46:07.334Z,9.40
2023-08-29T17:48:55.443Z,9.02
2023-08-29T17:51:43.490Z,8.75
2023-08-29T17:54:32.070Z,8.68
2023-08-29T17:57:20.026Z,8.10
2023-08-29T18:00:08.580Z,8.48
2023-08-29T18:02:58.295Z,11.00
2023-08-29T18:05:54.055Z,9.48
2023-08-29T18:08:43.218Z,9.20
2023-08-29T18:11:31.261Z,8.10
2023-08-29T18:14:19.317Z,10.85
2023-08-29T18:17:08.437Z,8.82
2023-08-29T18:19:58.430Z,11.07
2023-08-29T18:22:46.392Z,9.20
2023-08-29T18:25:14.263Z,7.75
2023-08-29T18:27:42.108Z,7.60
2023-08-29T18:30:10.531Z,8.18
2023-08-29T18:32:38.340Z,11.27
2023-08-29T18:35:16.530Z,9.23
2023-08-29T18:37:44.346Z,9.48
2023-08-29T18:40:12.533Z,9.98
2023-08-29T18:42:40.275Z,9.32
2023-08-29T18:45:28.530Z,10.50
2023-08-29T18:48:19.497Z,9.15
2023-08-29T18:51:07.475Z,13.35
2023-08-29T18:53:55.987Z,13.82
2023-08-29T18:56:43.895Z,11.63
2023-08-29T18:59:33.234Z,6.50
2023-08-29T19:02:21.225Z,5.78
2023-08-29T19:05:10.356Z,8.57
2023-08-29T19:07:58.291Z,10.82
2023-08-29T19:10:47.682Z,9.45
2023-08-29T19:13:35.710Z,10.25
2023-08-29T19:16:25.366Z,11.85
2023-08-29T19:19:13.283Z,9.57
2023-08-29T19:22:03.905Z,7.05
2023-08-29T19:24:51.948Z,8.20
2023-08-29T19:27:39.887Z,5.85
2023-08-29T19:30:27.908Z,5.55
2023-08-29T19:33:16.010Z,4.65
2023-08-29T19:36:16.727Z,7.60
2023-08-29T19:39:16.780Z,8.23
2023-08-29T19:42:05.698Z,7.68
2023-08-29T19:44:53.792Z,7.30
2023-08-29T19:47:42.932Z,6.55
2023-08-29T19:50:30.943Z,7.25
2023-08-29T19:53:19.003Z,10.40
2023-08-29T19:56:08.068Z,8.30
2023-08-29T19:58:56.171Z,6.38
2023-08-29T20:01:44.138Z,6.63
2023-08-29T20:04:32.100Z,7.85
2023-08-29T20:07:20.229Z,7.90
2023-08-29T20:10:08.496Z,7.28
2023-08-29T20:12:56.527Z,5.88
2023-08-29T20:15:45.075Z,9.20
2023-08-29T20:18:33.069Z,5.95
2023-08-29T20:21:21.010Z,9.68
2023-08-29T20:24:09.046Z,8.23
2023-08-29T20:26:57.018Z,7.85
2023-08-29T20:29:44.972Z,10.07
2023-08-29T20:32:32.984Z,7.47
2023-08-29T20:35:21.347Z,8.18
2023-08-29T20:38:09.543Z,7.63
2023-08-29T20:40:57.713Z,9.88
2023-08-29T20:43:45.695Z,7.55
2023-08-29T20:46:33.742Z,7.20
2023-08-29T20:49:21.783Z,6.50
2023-08-29T20:52:11.935Z,8.25
2023-08-29T20:55:00.250Z,6.88
2023-08-29T20:57:48.249Z,12.10
2023-08-29T21:00:36.269Z,6.47
2023-08-29T21:03:24.479Z,5.95
2023-08-29T21:06:12.970Z,6.22
2023-08-29T21:09:03.547Z,6.10
2023-08-29T21:11:52.092Z,7.90
2023-08-29T21:14:40.065Z,7.85
2023-08-29T21:17:28.134Z,11.27
2023-08-29T21:20:16.216Z,6.38
2023-08-29T21:23:05.130Z,8.95
2023-08-29T21:25:54.196Z,7.75
2023-08-29T21:28:44.878Z,8.70
2023-08-29T21:31:33.009Z,9.45
2023-08-29T21:34:23.324Z,6.13
2023-08-29T21:37:13.147Z,7.82
2023-08-29T21:40:01.220Z,7.85
2023-08-29T21:42:49.229Z,8.43
2023-08-29T21:45:38.590Z,8.40
2023-08-29T21:48:30.630Z,7.22
2023-08-29T21:51:21.875Z,10.05
2023-08-29T21:54:09.903Z,8.68
2023-08-29T21:56:57.832Z,8.25
2023-08-29T21:59:45.769Z,8.30
2023-08-29T22:02:33.843Z,7.22
2023-08-29T22:05:22.692Z,8.15
2023-08-29T22:08:11.186Z,8.15
2023-08-29T22:11:00.409Z,6.25
2023-08-29T22:13:48.381Z,6.97
2023-08-29T22:16:36.414Z,10.43
2023-08-29T22:19:25.445Z,6.25
2023-08-29T22:22:13.452Z,8.07
2023-08-29T22:25:01.437Z,8.52
2023-08-29T22:27:49.550Z,8.18
2023-08-29T22:30:40.138Z,7.72
2023-08-29T22:33:30.330Z,8.57
2023-08-29T22:36:19.946Z,10.98
2023-08-29T22:39:08.908Z,9.32
2023-08-29T22:41:56.881Z,8.75
2023-08-29T22:44:45.277Z,6.75
2023-08-29T22:47:33.252Z,9.25
2023-08-29T22:50:21.335Z,7.32
2023-08-29T22:53:09.308Z,8.27
2023-08-29T22:55:59.031Z,8.65
2023-08-29T22:58:47.038Z,9.35
2023-08-29T23:01:35.783Z,8.40
2023-08-29T23:04:23.921Z,10.45
2023-08-29T23:07:12.408Z,7.18
2023-08-29T23:10:00.543Z,9.15
2023-08-29T23:12:48.558Z,9.18
2023-08-29T23:15:36.523Z,8.43
2023-08-29T23:18:24.571Z,6.85
2023-08-29T23:21:12.784Z,6.50
2023-08-29T23:24:00.756Z,6.95
2023-08-29T23:26:49.310Z,7.88
2023-08-29T23:29:37.622Z,7.03
2023-08-29T23:32:25.643Z,10.25
2023-08-29T23:35:13.666Z,9.50
2023-08-29T23:38:01.613Z,8.82
2023-08-29T23:40:49.671Z,10.38
2023-08-29T23:43:38.071Z,8.02
2023-08-29T23:46:26.083Z,8.10
2023-08-29T23:49:14.107Z,9.38
2023-08-29T23:52:02.061Z,9.35
2023-08-29T23:54:50.133Z,8.98
2023-08-29T23:57:38.113Z,11.80
